Time;durP1;ratioP1;P1;durP2;ratioP2;P2;SDS_P1;SDS_P2;PMS_P1;PMS_P2;Temp;Humidity;BMP_temperature;BMP_pressure;BME280_temperature;BME280_humidity;BME280_pressure;Samples;Min_cycle;Max_cycle;Signal;HPM_P1;HPM_P2
2022/05/06 00:02:07;;;;;;;22.83;16.20;;;;;;;37.29;47.50;101063.75;5111559;28;20408;-76
2022/05/06 00:04:33;;;;;;;29.53;18.40;;;;;;;37.10;47.56;101069.22;5113830;28;20492;-79
2022/05/06 00:06:59;;;;;;;23.53;15.53;;;;;;;37.12;47.79;101063.50;5112412;28;20497;-77
2022/05/06 00:09:25;;;;;;;23.67;15.43;;;;;;;37.46;46.95;101071.34;5113714;28;20400;-77
2022/05/06 00:11:52;;;;;;;23.67;14.70;;;;;;;37.21;47.57;101064.44;5112277;28;20502;-77
2022/05/06 00:14:19;;;;;;;23.00;13.70;;;;;;;37.11;47.34;101059.19;5112177;28;20435;-77
2022/05/06 00:16:45;;;;;;;23.93;14.07;;;;;;;37.20;47.48;101064.72;5112113;28;20497;-76
2022/05/06 00:19:12;;;;;;;25.77;14.53;;;;;;;37.16;47.64;101061.81;5112082;28;20923;-77
2022/05/06 00:21:38;;;;;;;19.30;13.43;;;;;;;37.36;47.13;101063.41;5111909;28;20446;-77
2022/05/06 00:24:05;;;;;;;22.97;13.57;;;;;;;37.35;46.93;101064.50;5111876;28;20415;-77
2022/05/06 00:26:31;;;;;;;28.13;16.30;;;;;;;37.49;47.04;101059.91;5106311;28;20407;-76
2022/05/06 00:28:57;;;;;;;19.43;12.60;;;;;;;37.58;46.53;101066.25;5095087;28;20945;-76
2022/05/06 00:31:23;;;;;;;20.27;13.50;;;;;;;37.57;46.42;101061.94;5091564;28;20417;-78
2022/05/06 00:33:49;;;;;;;17.10;14.40;;;;;;;37.56;46.95;101070.34;5091389;28;20533;-77
2022/05/06 00:36:15;;;;;;;23.93;13.97;;;;;;;37.19;47.18;101063.91;5091797;28;20513;-76
2022/05/06 00:38:42;;;;;;;28.97;15.03;;;;;;;37.47;46.95;101067.53;5091359;28;20456;-77
2022/05/06 00:41:09;;;;;;;25.07;12.87;;;;;;;37.43;46.91;101061.09;5092670;28;20425;-78
2022/05/06 00:43:39;;;;;;;21.07;13.90;;;;;;;37.37;47.25;101056.88;5093761;28;20408;-76
2022/05/06 00:46:16;;;;;;;19.97;13.27;;;;;;;37.28;47.69;101051.31;5091581;28;20504;-76
2022/05/06 00:48:47;;;;;;;21.87;13.07;;;;;;;37.44;46.80;101057.28;5090780;28;20460;-78
2022/05/06 00:51:14;;;;;;;13.97;10.20;;;;;;;37.64;46.19;101042.59;5091297;28;20453;-77
2022/05/06 00:53:43;;;;;;;20.77;14.10;;;;;;;37.61;46.41;101043.19;5092497;28;20397;-76
2022/05/06 00:56:12;;;;;;;18.03;11.37;;;;;;;37.47;46.54;101037.75;5091246;28;20463;-78
2022/05/06 00:58:39;;;;;;;22.27;13.97;;;;;;;37.59;46.30;101032.66;5092390;28;20462;-76
2022/05/06 01:01:09;;;;;;;19.77;11.50;;;;;;;37.29;46.81;101031.28;5091211;28;20407;-76
2022/05/06 01:03:35;;;;;;;20.70;10.70;;;;;;;37.42;46.93;101026.22;5091024;28;20827;-78
2022/05/06 01:06:07;;;;;;;26.50;11.30;;;;;;;37.53;46.48;101025.75;5090954;28;20444;-77
2022/05/06 01:08:34;;;;;;;15.73;9.47;;;;;;;37.39;46.96;101011.41;5091018;28;20411;-77
2022/05/06 01:11:01;;;;;;;14.80;10.33;;;;;;;37.53;46.44;101004.09;5090883;28;20450;-78
2022/05/06 01:13:28;;;;;;;15.17;9.77;;;;;;;37.31;46.74;101012.03;5090603;28;20438;-77
2022/05/06 01:15:57;;;;;;;30.93;13.10;;;;;;;37.33;46.84;101017.97;5090955;28;20428;-78
2022/05/06 01:18:23;;;;;;;16.83;10.93;;;;;;;37.11;47.53;101007.81;5092099;28;20467;-78
2022/05/06 01:20:51;;;;;;;13.97;10.67;;;;;;;37.13;47.53;100992.06;5091916;28;20808;-77
2022/05/06 01:23:19;;;;;;;18.27;11.83;;;;;;;37.05;47.79;100992.75;5092075;28;20389;-78
2022/05/06 01:25:46;;;;;;;22.63;12.00;;;;;;;37.02;47.52;100991.47;5090829;28;20412;-76
2022/05/06 01:28:14;;;;;;;32.60;12.10;;;;;;;37.22;47.19;100986.78;5091981;28;20389;-78
2022/05/06 01:30:48;;;;;;;25.97;13.67;;;;;;;37.07;47.67;100980.53;5090593;28;20443;-78
2022/05/06 01:33:19;;;;;;;19.40;11.77;;;;;;;37.16;47.29;100971.75;5092016;28;20400;-78
2022/05/06 01:35:52;;;;;;;18.73;13.83;;;;;;;37.34;46.76;100968.22;5090678;28;20967;-77
2022/05/06 01:38:40;;;;;;;20.27;11.93;;;;;;;37.46;47.02;100970.41;5090620;28;20510;-78
2022/05/06 01:41:21;;;;;;;19.23;11.43;;;;;;;37.59;46.40;100969.63;5089980;28;20436;-78
2022/05/06 01:43:53;;;;;;;18.40;13.87;;;;;;;37.49;46.73;100958.97;5091647;28;20407;-77
2022/05/06 01:46:21;;;;;;;21.30;11.90;;;;;;;37.20;46.82;100951.94;5090527;28;20412;-78
2022/05/06 01:48:49;;;;;;;17.97;10.70;;;;;;;37.19;47.51;100949.50;5091487;28;20463;-78
2022/05/06 01:51:16;;;;;;;14.67;13.83;;;;;;;37.04;47.62;100947.91;5090485;28;20423;-77
2022/05/06 01:53:43;;;;;;;15.80;10.83;;;;;;;37.19;47.38;100942.19;5090419;28;20470;-77
2022/05/06 01:56:09;;;;;;;19.20;13.47;;;;;;;36.88;48.30;100936.53;5090521;28;20415;-78
2022/05/06 01:58:36;;;;;;;24.57;13.00;;;;;;;36.95;47.67;100933.44;5090339;28;20998;-78
2022/05/06 02:01:02;;;;;;;21.33;11.93;;;;;;;37.10;47.19;100941.28;5090398;28;20421;-77
2022/05/06 02:06:13;;;;;;;19.70;11.30;;;;;;;36.89;48.06;100926.50;5091785;28;20766;-77
2022/05/06 02:08:39;;;;;;;14.73;10.40;;;;;;;36.76;48.45;100906.44;5090549;28;20949;-77
2022/05/06 02:11:06;;;;;;;23.43;12.07;;;;;;;36.61;48.67;100894.00;5090310;28;20416;-78
2022/05/06 02:13:34;;;;;;;21.13;13.30;;;;;;;36.58;48.82;100881.06;5091696;28;20397;-77
2022/05/06 02:16:02;;;;;;;18.00;11.13;;;;;;;36.78;48.89;100888.03;5091535;28;20466;-77
2022/05/06 02:18:28;;;;;;;18.83;10.57;;;;;;;36.66;49.03;100893.91;5090220;28;20460;-77
2022/05/06 02:20:58;;;;;;;16.30;10.60;;;;;;;36.75;49.04;100902.13;5090282;28;20423;-78
2022/05/06 02:23:26;;;;;;;19.33;9.93;;;;;;;37.04;47.47;100900.00;5090210;28;20448;-78
2022/05/06 02:25:52;;;;;;;17.40;10.00;;;;;;;36.85;48.10;100902.75;5094104;28;20412;-77
2022/05/06 02:28:19;;;;;;;18.63;9.53;;;;;;;36.93;48.07;100901.28;5093733;28;20432;-78
2022/05/06 02:33:31;;;;;;;19.73;14.40;;;;;;;36.60;48.88;100927.53;5095185;28;20439;-78
2022/05/06 02:35:59;;;;;;;27.03;14.50;;;;;;;36.77;48.69;100926.94;5093900;28;20776;-78
2022/05/06 02:38:26;;;;;;;37.83;15.77;;;;;;;36.88;47.92;100941.13;5093605;28;20460;-77
2022/05/06 02:40:53;;;;;;;28.93;13.57;;;;;;;36.76;48.42;100953.19;5093690;28;20432;-76
2022/05/06 02:43:19;;;;;;;22.53;12.50;;;;;;;37.04;47.67;100953.31;5093671;28;20934;-76
2022/05/06 02:45:45;;;;;;;17.87;12.00;;;;;;;37.15;47.58;100953.94;5093510;28;20470;-78
2022/05/06 02:48:11;;;;;;;13.37;12.67;;;;;;;37.24;47.17;100954.81;5093411;28;20467;-78
2022/05/06 02:50:38;;;;;;;20.33;11.00;;;;;;;37.26;47.12;100948.03;5094771;28;20412;-78
2022/05/06 02:53:05;;;;;;;14.73;10.27;;;;;;;36.89;47.88;100948.16;5093551;28;20878;-79
2022/05/06 02:55:32;;;;;;;18.07;12.40;;;;;;;36.91;48.11;100954.88;5093470;28;20470;-78
2022/05/06 02:57:58;;;;;;;17.20;11.77;;;;;;;36.99;47.70;100964.19;5093216;28;20554;-77
2022/05/06 03:00:24;;;;;;;21.60;10.70;;;;;;;37.09;47.47;100975.66;5093374;28;20417;-78
2022/05/06 03:02:51;;;;;;;15.50;10.50;;;;;;;37.19;47.40;100968.44;5093245;28;20433;-76
2022/05/06 03:05:17;;;;;;;13.90;9.20;;;;;;;37.26;47.05;100966.13;5094701;28;20396;-79
2022/05/06 03:07:43;;;;;;;14.73;10.57;;;;;;;37.11;47.52;100962.63;5093175;28;20416;-77
2022/05/06 03:10:10;;;;;;;17.80;10.00;;;;;;;37.13;47.60;100965.03;5094517;28;20400;-77
2022/05/06 03:12:37;;;;;;;24.70;10.80;;;;;;;36.98;47.72;100951.78;5093201;28;20943;-78
2022/05/06 03:15:05;;;;;;;15.90;8.30;;;;;;;37.04;47.50;100943.28;5093067;28;20516;-78
2022/05/06 03:17:34;;;;;;;13.03;8.00;;;;;;;37.33;46.76;100944.94;5092912;28;20522;-77
2022/05/06 03:20:04;;;;;;;16.03;7.93;;;;;;;37.10;47.14;100939.38;5094367;28;20397;-77
2022/05/06 03:22:45;;;;;;;13.30;9.77;;;;;;;37.19;47.40;100949.50;5092807;28;20450;-77
2022/05/06 03:25:13;;;;;;;13.10;8.97;;;;;;;37.33;47.12;100961.16;5093005;28;20446;-76
2022/05/06 03:30:24;;;;;;;12.07;8.73;;;;;;;37.25;46.98;100978.06;5094304;28;20435;-78
2022/05/06 03:32:51;;;;;;;16.80;11.40;;;;;;;37.08;47.23;100974.06;5092812;28;20424;-78
2022/05/06 03:35:18;;;;;;;19.50;10.37;;;;;;;36.80;48.49;100978.53;5092623;28;20424;-78
2022/05/06 03:37:44;;;;;;;22.23;9.40;;;;;;;37.13;47.58;100984.75;5092534;28;20572;-78
2022/05/06 03:40:11;;;;;;;20.17;8.50;;;;;;;37.31;47.56;100985.00;5092590;28;20444;-77
2022/05/06 03:42:37;;;;;;;25.50;11.57;;;;;;;37.26;47.42;101004.84;5092520;28;20413;-78
2022/05/06 03:45:06;;;;;;;20.37;9.43;;;;;;;37.28;47.38;101008.03;5092552;28;20429;-77
2022/05/06 03:47:32;;;;;;;16.70;11.60;;;;;;;37.36;46.99;101020.09;5092232;28;20424;-78
2022/05/06 03:52:43;;;;;;;17.57;11.53;;;;;;;37.30;46.94;101022.06;5093363;28;20768;-78
2022/05/06 03:55:09;;;;;;;23.70;11.30;;;;;;;37.16;47.53;101013.13;5092322;28;20444;-77
2022/05/06 03:57:35;;;;;;;14.97;11.97;;;;;;;37.25;47.13;101005.13;5091941;28;20475;-77
2022/05/06 04:00:01;;;;;;;12.43;9.50;;;;;;;37.38;46.74;101004.38;5092169;28;20497;-77
2022/05/06 04:02:27;;;;;;;18.50;10.30;;;;;;;37.35;46.77;100992.25;5092256;28;20420;-77
2022/05/06 04:04:53;;;;;;;16.00;10.27;;;;;;;37.48;46.10;100982.53;5092258;28;20850;-79
2022/05/06 04:07:19;;;;;;;19.80;11.50;;;;;;;37.59;46.39;100973.13;5092192;28;20979;-77
2022/05/06 04:09:45;;;;;;;14.30;10.13;;;;;;;37.32;46.66;100962.25;5091884;28;20531;-77
2022/05/06 04:12:12;;;;;;;12.73;8.93;;;;;;;37.04;47.00;100954.09;5092080;28;20428;-75
2022/05/06 04:14:38;;;;;;;17.30;8.80;;;;;;;37.18;47.46;100946.00;5091788;28;20448;-76
2022/05/06 04:17:04;;;;;;;22.07;11.00;;;;;;;36.83;48.14;100942.81;5091879;28;20424;-76
2022/05/06 04:19:30;;;;;;;17.87;11.37;;;;;;;36.82;48.17;100946.59;5093100;28;20401;-76
2022/05/06 04:24:41;;;;;;;15.73;12.73;;;;;;;36.90;48.08;100987.63;5093066;28;20534;-77
2022/05/06 04:27:07;;;;;;;18.83;12.03;;;;;;;37.18;47.44;101002.00;5091579;28;20445;-78
2022/05/06 04:29:33;;;;;;;15.47;11.57;;;;;;;37.28;47.11;101007.25;5091601;28;20559;-78
2022/05/06 04:31:59;;;;;;;18.60;11.47;;;;;;;36.91;47.80;100992.72;5091588;28;20948;-76
2022/05/06 04:34:25;;;;;;;18.50;10.80;;;;;;;36.75;48.27;101002.16;5091356;28;20440;-77
2022/05/06 04:36:51;;;;;;;10.53;8.63;;;;;;;36.78;48.58;101018.59;5091712;28;20958;-76
2022/05/06 04:39:17;;;;;;;16.97;9.50;;;;;;;37.01;47.47;101037.72;5091339;28;20440;-79
2022/05/06 04:41:45;;;;;;;15.73;9.80;;;;;;;37.23;47.10;101061.44;5091210;28;20540;-78
2022/05/06 04:44:11;;;;;;;17.67;8.67;;;;;;;37.45;46.89;101077.84;5091413;28;20420;-76
2022/05/06 04:46:37;;;;;;;17.00;10.00;;;;;;;37.21;47.35;101069.06;5090808;28;20457;-77
2022/05/06 04:49:03;;;;;;;23.13;11.27;;;;;;;37.21;47.29;101069.84;5090964;28;20514;-78
2022/05/06 04:51:29;;;;;;;13.03;9.80;;;;;;;37.39;46.71;101076.34;5092572;28;20874;-78
2022/05/06 04:53:55;;;;;;;16.37;7.87;;;;;;;37.49;46.34;101086.97;5106659;28;20428;-78
2022/05/06 04:56:24;;;;;;;11.67;9.07;;;;;;;37.51;46.57;101087.50;5111453;28;20415;-79
2022/05/06 04:58:50;;;;;;;18.07;10.47;;;;;;;37.36;46.09;101085.03;5111303;28;20459;-76
2022/05/06 05:01:16;;;;;;;21.87;9.13;;;;;;;37.46;45.00;101095.69;5111280;28;20420;-77
2022/05/06 05:03:42;;;;;;;14.60;7.63;;;;;;;37.48;44.38;101090.78;5111757;28;20416;-78
2022/05/06 05:06:08;;;;;;;33.37;7.80;;;;;;;37.36;44.17;101076.91;5111318;28;20779;-78
2022/05/06 05:08:34;;;;;;;17.13;7.20;;;;;;;37.55;43.84;101058.72;5111265;28;20797;-76
2022/05/06 05:11:04;;;;;;;14.70;5.70;;;;;;;37.23;45.12;101053.31;5111424;28;20424;-77
2022/05/06 05:13:38;;;;;;;25.87;6.47;;;;;;;37.33;44.36;101074.78;5107824;28;20502;-75
2022/05/06 05:16:05;;;;;;;20.23;8.33;;;;;;;37.41;44.38;101097.69;5111228;28;20419;-77
2022/05/06 05:18:31;;;;;;;17.10;8.00;;;;;;;37.34;44.02;101106.19;5112453;28;20443;-77
2022/05/06 05:20:57;;;;;;;16.00;5.30;;;;;;;37.29;44.55;101114.34;5111163;28;20415;-76
2022/05/06 05:23:23;;;;;;;12.00;5.23;;;;;;;37.20;44.69;101114.22;5111059;28;20915;-78
2022/05/06 05:25:49;;;;;;;15.07;6.50;;;;;;;36.99;44.36;101105.63;5111047;28;20418;-78
2022/05/06 05:28:15;;;;;;;13.20;4.77;;;;;;;37.08;43.77;101117.38;5111022;28;20411;-77
2022/05/06 05:30:41;;;;;;;18.40;4.73;;;;;;;37.17;43.59;101130.22;5110864;28;20415;-77
2022/05/06 05:33:09;;;;;;;17.77;7.60;;;;;;;37.13;43.82;101132.72;5111273;28;20471;-77
2022/05/06 05:35:36;;;;;;;22.67;9.13;;;;;;;37.16;43.95;101124.03;5110929;28;20448;-79
2022/05/06 05:38:03;;;;;;;15.57;6.83;;;;;;;37.20;43.87;101119.63;5110757;28;20464;-79
2022/05/06 05:40:29;;;;;;;13.97;5.87;;;;;;;37.28;43.58;101120.88;5110935;28;20938;-77
2022/05/06 05:42:55;;;;;;;15.87;5.50;;;;;;;37.31;43.07;101128.38;5110779;28;20766;-74
2022/05/06 05:48:19;;;;;;;13.20;6.73;;;;;;;37.40;42.55;101132.06;5112070;28;20466;-76
2022/05/06 05:50:46;;;;;;;10.23;4.97;;;;;;;37.49;42.19;101126.75;5110743;28;20446;-76
2022/05/06 05:53:12;;;;;;;10.93;5.00;;;;;;;37.50;41.80;101118.34;5110863;28;20435;-75
2022/05/06 05:55:38;;;;;;;12.00;4.83;;;;;;;37.49;41.58;101115.94;5111924;28;20455;-75
2022/05/06 05:58:04;;;;;;;12.37;3.67;;;;;;;37.51;41.17;101103.72;5110394;28;20471;-76
2022/05/06 06:00:30;;;;;;;8.13;5.37;;;;;;;37.50;41.06;101129.16;5114536;28;20423;-75
2022/05/06 06:02:57;;;;;;;11.23;4.50;;;;;;;37.52;41.07;101147.84;5114626;28;20439;-76
2022/05/06 06:05:23;;;;;;;9.40;3.97;;;;;;;37.43;41.64;101166.63;5116164;28;20399;-76
2022/05/06 06:07:49;;;;;;;10.37;4.80;;;;;;;37.49;41.40;101180.88;5114842;28;20464;-74
2022/05/06 06:10:15;;;;;;;15.63;5.13;;;;;;;37.50;41.61;101217.66;5114517;28;20411;-85
2022/05/06 06:12:41;;;;;;;14.47;5.47;;;;;;;37.50;42.15;101253.66;5114641;28;20439;-77
2022/05/06 06:15:08;;;;;;;15.13;5.97;;;;;;;37.32;42.41;101287.72;5114566;28;20840;-74
2022/05/06 06:17:34;;;;;;;16.23;6.43;;;;;;;37.50;42.50;101337.56;5114639;28;20459;-74
2022/05/06 06:20:02;;;;;;;15.30;6.57;;;;;;;37.20;43.17;101379.34;5113300;28;20427;-77
2022/05/06 06:22:28;;;;;;;16.70;7.60;;;;;;;36.65;43.07;101389.63;5113701;28;20451;-75
2022/05/06 06:24:54;;;;;;;14.97;5.70;;;;;;;35.85;43.53;101398.00;5111899;28;20451;-74
2022/05/06 06:27:20;;;;;;;13.00;6.77;;;;;;;35.24;45.19;101417.91;5115440;28;20468;-74
2022/05/06 06:29:49;;;;;;;11.13;4.80;;;;;;;35.23;45.04;101410.88;5114324;28;20447;-73
2022/05/06 06:32:16;;;;;;;14.97;5.13;;;;;;;35.07;45.00;101398.53;5115680;28;20774;-74
2022/05/06 06:34:42;;;;;;;12.67;5.03;;;;;;;34.99;45.60;101386.44;5113994;28;20511;-74
2022/05/06 06:37:08;;;;;;;14.87;5.23;;;;;;;35.14;44.55;101365.88;5114090;28;20430;-74
2022/05/06 06:39:36;;;;;;;16.80;5.20;;;;;;;35.41;44.07;101371.72;5110633;28;20460;-73
2022/05/06 06:42:02;;;;;;;9.83;4.10;;;;;;;35.40;44.48;101364.69;5113255;27;20947;-75
2022/05/06 06:44:28;;;;;;;10.30;5.37;;;;;;;35.51;44.34;101360.09;5113621;28;20418;-75
2022/05/06 06:46:55;;;;;;;10.97;5.27;;;;;;;35.51;43.95;101350.13;5113765;28;20412;-76
2022/05/06 06:49:21;;;;;;;8.73;4.47;;;;;;;35.49;43.66;101322.63;5113465;28;21012;-74
2022/05/06 06:51:47;;;;;;;10.53;5.03;;;;;;;35.38;43.58;101323.72;5108490;28;20574;-78
2022/05/06 06:54:13;;;;;;;9.50;5.20;;;;;;;35.55;43.09;101319.91;5115015;28;20400;-84
2022/05/06 06:56:39;;;;;;;10.03;5.13;;;;;;;35.53;43.78;101339.84;5104307;28;20882;-82
2022/05/06 06:59:05;;;;;;;11.60;3.63;;;;;;;35.61;43.23;101354.66;5110010;28;20435;-76
2022/05/06 07:01:33;;;;;;;7.10;3.57;;;;;;;35.64;43.17;101367.59;5102822;28;20814;-82
2022/05/06 07:04:00;;;;;;;9.00;4.17;;;;;;;35.74;43.43;101364.03;5102980;28;20462;-77
2022/05/06 07:11:56;;;;;;;7.97;4.80;;;;;;;35.78;43.00;101321.88;5109385;28;20415;-76
2022/05/06 07:14:25;;;;;;;9.07;5.90;;;;;;;35.77;42.99;101321.09;5104421;28;20428;-83
2022/05/06 07:16:52;;;;;;;9.20;5.63;;;;;;;35.79;42.88;101289.25;5104729;28;20417;-76
2022/05/06 07:19:20;;;;;;;6.20;3.37;;;;;;;35.74;42.39;101285.78;5102337;28;20447;-74
2022/05/06 07:21:46;;;;;;;5.40;2.63;;;;;;;35.53;43.24;101276.97;5104808;28;20419;-82
2022/05/06 07:24:12;;;;;;;8.70;2.87;;;;;;;35.46;42.84;101274.59;5104884;28;20417;-82
2022/05/06 07:26:38;;;;;;;6.13;3.40;;;;;;;35.52;43.29;101276.19;5100927;28;20441;-81
2022/05/06 07:29:04;;;;;;;9.43;3.67;;;;;;;35.32;43.78;101276.28;5103352;28;20422;-77
2022/05/06 07:31:31;;;;;;;9.40;4.37;;;;;;;35.50;43.59;101278.38;5104901;28;20428;-77
2022/05/06 07:33:57;;;;;;;10.73;4.47;;;;;;;35.24;43.24;101280.38;5107233;28;20474;-77
2022/05/06 07:36:23;;;;;;;8.50;4.77;;;;;;;35.35;43.51;101281.09;5113186;28;20444;-81
2022/05/06 07:38:50;;;;;;;13.03;4.87;;;;;;;35.20;43.93;101291.97;5112735;28;20459;-82
2022/05/06 07:41:16;;;;;;;8.60;5.10;;;;;;;35.30;43.98;101310.81;5112375;28;20493;-81
2022/05/06 07:43:42;;;;;;;13.13;4.63;;;;;;;35.11;43.89;101334.06;5113453;28;20424;-82
2022/05/06 07:46:11;;;;;;;8.10;4.60;;;;;;;35.18;43.76;101340.81;5104043;28;20419;-74
2022/05/06 07:48:40;;;;;;;10.03;5.50;;;;;;;35.29;44.29;101349.63;5111683;28;20517;-75
2022/05/06 07:51:06;;;;;;;9.77;4.77;;;;;;;35.33;44.23;101353.41;5106273;28;20423;-76
2022/05/06 07:53:33;;;;;;;13.53;5.70;;;;;;;35.20;44.09;101373.69;5103275;28;20424;-75
2022/05/06 07:56:35;;;;;;;9.13;4.47;;;;;;;35.35;43.92;101380.91;5105594;28;21002;-82
2022/05/06 07:59:21;;;;;;;14.80;5.57;;;;;;;35.13;43.85;101380.47;5109529;28;20416;-81
2022/05/06 08:04:38;;;;;;;8.97;5.27;;;;;;;34.81;44.38;101386.97;5111684;28;20435;-76
2022/05/06 08:07:06;;;;;;;7.63;4.00;;;;;;;34.61;44.33;101382.38;5096497;28;20477;-74
2022/05/06 08:09:33;;;;;;;9.60;5.77;;;;;;;34.58;44.67;101385.63;5105101;28;20423;-74
2022/05/06 08:11:59;;;;;;;15.77;4.83;;;;;;;34.46;44.60;101380.53;5105144;28;20416;-76
2022/05/06 08:14:26;;;;;;;8.60;4.70;;;;;;;34.57;44.65;101377.84;5112753;28;20443;-75
2022/05/06 08:16:52;;;;;;;13.27;5.73;;;;;;;34.46;44.67;101393.19;5100606;28;20424;-76
2022/05/06 08:19:19;;;;;;;7.97;4.90;;;;;;;34.37;44.35;101383.97;5105912;28;20517;-81
2022/05/06 08:21:46;;;;;;;9.10;5.20;;;;;;;34.64;43.95;101399.91;5111682;28;20852;-76
2022/05/06 08:24:12;;;;;;;8.43;5.27;;;;;;;34.59;44.53;101408.81;5103301;28;20424;-76
2022/05/06 08:26:38;;;;;;;8.43;5.50;;;;;;;34.50;44.68;101410.44;5103319;28;20416;-74
2022/05/06 08:29:04;;;;;;;10.70;6.30;;;;;;;34.53;44.82;101417.16;5093196;28;20646;-75
2022/05/06 08:31:37;;;;;;;7.90;4.83;;;;;;;34.23;44.89;101421.41;5091783;28;20481;-76
2022/05/06 08:34:07;;;;;;;8.47;5.10;;;;;;;34.26;45.08;101412.00;5091720;28;20486;-75
2022/05/06 08:36:35;;;;;;;9.17;5.60;;;;;;;34.31;45.45;101391.25;5094289;28;20533;-75
2022/05/06 08:39:03;;;;;;;7.63;5.20;;;;;;;34.52;45.30;101419.03;5091296;28;20464;-75
2022/05/06 08:41:29;;;;;;;12.17;5.03;;;;;;;34.34;44.90;101393.41;5091295;28;20976;-74
2022/05/06 08:43:56;;;;;;;14.30;5.60;;;;;;;34.56;44.90;101386.97;5092760;28;20495;-76
2022/05/06 08:51:56;;;;;;;9.40;5.37;;;;;;;34.70;45.18;101361.13;5092376;28;20958;-78
2022/05/06 08:54:23;;;;;;;8.53;4.93;;;;;;;34.61;44.98;101357.34;5091410;28;20512;-76
2022/05/06 08:56:49;;;;;;;12.43;7.47;;;;;;;34.85;44.77;101352.19;5095031;28;20476;-74
2022/05/06 08:59:15;;;;;;;19.30;5.63;;;;;;;34.93;44.42;101348.97;5090920;28;20453;-75
2022/05/06 09:01:41;;;;;;;15.43;7.23;;;;;;;34.97;44.26;101348.13;5091171;28;20405;-74
2022/05/06 09:04:09;;;;;;;13.13;7.57;;;;;;;35.13;43.90;101353.50;5090905;28;20452;-74
2022/05/06 09:06:35;;;;;;;8.80;5.40;;;;;;;35.05;44.13;101345.94;5092426;28;20425;-74
2022/05/06 09:09:01;;;;;;;8.57;4.73;;;;;;;34.71;44.28;101355.44;5092442;28;20956;-76
2022/05/06 09:16:39;;;;;;;14.67;6.10;;;;;;;35.11;43.90;101366.41;5092737;28;21156;-81
2022/05/06 09:17:25;;;;;;;9.20;5.50;;;;;;;35.06;44.25;101369.16;5104809;28;20455;-78
2022/05/06 09:19:51;;;;;;;9.20;4.97;;;;;;;35.20;43.49;101368.28;5111241;28;20419;-76
2022/05/06 09:22:17;;;;;;;16.20;6.17;;;;;;;34.96;43.95;101357.31;5109933;28;20439;-74
2022/05/06 09:24:44;;;;;;;12.70;6.70;;;;;;;35.13;43.77;101358.88;5101857;28;20451;-75
2022/05/06 09:27:23;;;;;;;8.80;5.00;;;;;;;35.17;43.67;101365.31;5097524;28;20417;-78
2022/05/06 09:29:51;;;;;;;16.10;5.83;;;;;;;34.77;44.21;101355.44;5090775;28;20413;-79
2022/05/06 09:32:25;;;;;;;9.50;6.20;;;;;;;34.99;43.98;101364.06;5091076;28;20420;-80
2022/05/06 09:34:58;;;;;;;8.63;5.53;;;;;;;35.08;43.88;101365.09;5092224;28;20888;-81
2022/05/06 09:37:34;;;;;;;9.87;5.47;;;;;;;35.06;43.62;101369.97;5091164;28;20460;-81
2022/05/06 09:40:07;;;;;;;12.80;8.70;;;;;;;35.08;43.75;101362.41;5090553;28;20585;-76
2022/05/06 09:42:41;;;;;;;17.60;5.80;;;;;;;34.87;44.27;101353.53;5092049;28;20394;-82
2022/05/06 09:45:08;;;;;;;9.90;5.70;;;;;;;34.14;45.10;101353.81;5090630;28;20409;-76
2022/05/06 09:47:35;;;;;;;19.20;4.63;;;;;;;33.38;47.00;101356.25;5090127;28;20429;-76
2022/05/06 09:50:06;;;;;;;8.40;3.90;;;;;;;33.48;46.82;101353.63;5098386;28;20518;-75
2022/05/06 09:52:33;;;;;;;8.57;5.40;;;;;;;33.76;46.56;101371.22;5103785;28;20565;-77
2022/05/06 09:55:01;;;;;;;12.20;4.97;;;;;;;34.05;45.73;101357.31;5110791;28;20930;-75
2022/05/06 09:57:29;;;;;;;7.57;4.87;;;;;;;34.35;44.65;101348.44;5110562;28;20460;-76
2022/05/06 09:59:55;;;;;;;11.17;8.67;;;;;;;34.35;44.99;101354.63;5102221;28;20421;-76
2022/05/06 10:02:21;;;;;;;13.70;6.20;;;;;;;34.38;45.22;101356.00;5098106;28;20445;-75
2022/05/06 10:04:50;;;;;;;12.37;7.27;;;;;;;34.64;44.64;101356.81;5101470;28;20772;-76
2022/05/06 10:07:18;;;;;;;11.43;6.67;;;;;;;34.55;44.63;101355.72;5100959;28;21012;-74
2022/05/06 10:09:53;;;;;;;9.10;4.90;;;;;;;34.59;44.28;101352.22;5100886;28;20418;-74
2022/05/06 10:12:22;;;;;;;10.37;4.93;;;;;;;34.41;45.09;101348.16;5101002;28;20431;-79
2022/05/06 10:14:50;;;;;;;11.70;6.40;;;;;;;34.11;45.93;101345.47;5108190;28;20923;-76
2022/05/06 10:17:49;;;;;;;15.13;8.20;;;;;;;34.40;45.64;101343.84;5101022;28;20936;-74
2022/05/06 10:20:37;;;;;;;14.80;6.43;;;;;;;34.42;45.33;101338.19;5095489;28;20803;-75
2022/05/06 10:23:08;;;;;;;11.93;7.17;;;;;;;34.63;45.55;101336.34;5099429;28;20513;-73
2022/05/06 10:25:43;;;;;;;9.50;5.57;;;;;;;34.57;45.15;101340.13;5110422;28;20400;-73
2022/05/06 10:34:07;;;;;;;12.93;5.10;;;;;;;34.71;44.07;101312.31;5108719;28;20561;-71
2022/05/06 10:36:53;;;;;;;9.00;5.07;;;;;;;34.80;44.42;101312.56;5104287;28;20423;-71
2022/05/06 10:39:27;;;;;;;14.90;5.20;;;;;;;34.61;44.65;101316.91;5110160;28;20472;-71
2022/05/06 10:42:05;;;;;;;9.53;5.57;;;;;;;34.73;44.52;101312.03;5094876;28;20524;-71
2022/05/06 10:44:44;;;;;;;9.27;5.37;;;;;;;34.34;44.76;101314.50;5098627;28;20428;-74
2022/05/06 10:47:13;;;;;;;8.60;3.70;;;;;;;34.47;45.19;101316.69;5102297;28;20420;-70
2022/05/06 10:49:50;;;;;;;10.30;5.30;;;;;;;34.64;44.52;101316.38;5114667;28;20436;-70
2022/05/06 10:52:16;;;;;;;9.13;5.13;;;;;;;34.24;45.12;101314.50;5102770;28;20962;-69
2022/05/06 10:54:43;;;;;;;8.77;6.80;;;;;;;34.17;45.55;101314.78;5105027;28;20412;-69
2022/05/06 10:57:09;;;;;;;12.80;5.23;;;;;;;34.48;45.60;101305.63;5103027;28;20420;-70
2022/05/06 10:59:51;;;;;;;11.03;5.73;;;;;;;34.53;45.60;101287.84;5104312;28;20420;-69
2022/05/06 11:02:21;;;;;;;7.43;4.40;;;;;;;34.28;45.00;101278.69;5092612;28;20416;-69
2022/05/06 11:04:51;;;;;;;10.57;5.03;;;;;;;34.34;45.34;101274.91;5093339;28;20955;-71
2022/05/06 11:07:17;;;;;;;8.30;4.50;;;;;;;34.27;45.73;101269.00;5093209;28;20477;-70
2022/05/06 11:09:44;;;;;;;6.90;4.50;;;;;;;34.42;45.52;101266.31;5093292;28;20481;-70
2022/05/06 11:12:12;;;;;;;8.93;4.80;;;;;;;34.48;45.45;101253.63;5108052;28;20404;-70
2022/05/06 11:14:38;;;;;;;9.13;5.10;;;;;;;34.42;44.80;101242.06;5107110;28;20416;-70
2022/05/06 11:17:18;;;;;;;7.70;4.10;;;;;;;34.43;44.92;101238.28;5109636;28;20539;-71
2022/05/06 11:19:44;;;;;;;9.57;5.10;;;;;;;34.30;45.47;101227.25;5103343;28;20407;-70
2022/05/06 11:22:11;;;;;;;9.90;6.23;;;;;;;34.02;46.06;101210.59;5113420;28;20799;-70
2022/05/06 11:24:37;;;;;;;13.03;7.30;;;;;;;34.10;46.50;101204.66;5113383;28;20412;-71
2022/05/06 11:27:13;;;;;;;10.43;7.83;;;;;;;34.39;45.91;101191.41;5113326;28;20477;-71
2022/05/06 11:29:56;;;;;;;10.60;7.77;;;;;;;34.53;45.33;101180.91;5112764;28;20415;-71
2022/05/06 11:32:24;;;;;;;15.10;8.73;;;;;;;34.70;45.13;101173.28;5113317;28;20426;-71
2022/05/06 11:35:11;;;;;;;17.83;7.43;;;;;;;34.68;44.75;101161.16;5114527;28;20442;-71
2022/05/06 11:37:42;;;;;;;11.67;7.53;;;;;;;34.50;45.28;101151.00;5113075;28;20464;-70
2022/05/06 11:42:49;;;;;;;9.37;6.80;;;;;;;33.96;46.76;101135.53;5114452;28;20927;-71
2022/05/06 11:48:09;;;;;;;13.63;8.70;;;;;;;34.10;46.75;101129.28;5093687;28;20505;-71
2022/05/06 11:50:37;;;;;;;12.10;8.83;;;;;;;34.33;45.91;101124.38;5106414;28;20428;-70
2022/05/06 11:53:08;;;;;;;13.70;9.13;;;;;;;33.62;46.75;101119.91;5109260;28;20820;-71
2022/05/06 11:55:40;;;;;;;14.50;8.53;;;;;;;33.41;47.49;101116.44;5112828;28;20506;-70
2022/05/06 11:58:09;;;;;;;15.10;9.37;;;;;;;33.60;47.89;101105.94;5112608;28;20460;-72
2022/05/06 12:00:35;;;;;;;23.43;9.80;;;;;;;33.35;47.77;101094.06;5112683;28;20949;-73
2022/05/06 12:03:07;;;;;;;19.23;11.80;;;;;;;33.71;47.60;101091.41;5114000;28;20781;-71
2022/05/06 12:05:34;;;;;;;15.90;11.73;;;;;;;33.58;48.13;101081.19;5095542;28;20412;-72
2022/05/06 12:08:01;;;;;;;16.00;11.13;;;;;;;33.43;47.98;101071.25;5095802;28;20505;-71